sensor_id;sensor_type;location;lat;lon;timestamp;pressure;altitude;pressure_sealevel;temperature;humidity
74905;BME280;63465;50.862;6.220;2023-04-03T00:02:22;101122.75;;;2.95;81.10
74905;BME280;63465;50.862;6.220;2023-04-03T00:04:49;101125.41;;;3.00;80.99
74905;BME280;63465;50.862;6.220;2023-04-03T00:07:18;101124.50;;;2.92;81.02
74905;BME280;63465;50.862;6.220;2023-04-03T00:09:45;101126.06;;;2.60;82.70
74905;BME280;63465;50.862;6.220;2023-04-03T00:12:11;101132.03;;;2.41;83.78
74905;BME280;63465;50.862;6.220;2023-04-03T00:14:38;101132.94;;;2.46;83.36
74905;BME280;63465;50.862;6.220;2023-04-03T00:17:05;101130.50;;;2.72;82.54
74905;BME280;63465;50.862;6.220;2023-04-03T00:19:31;101128.84;;;2.83;81.57
74905;BME280;63465;50.862;6.220;2023-04-03T00:21:58;101134.88;;;2.73;82.23
74905;BME280;63465;50.862;6.220;2023-04-03T00:24:26;101134.88;;;2.72;81.64
74905;BME280;63465;50.862;6.220;2023-04-03T00:26:53;101137.41;;;2.59;82.46
74905;BME280;63465;50.862;6.220;2023-04-03T00:29:20;101147.75;;;2.39;83.21
74905;BME280;63465;50.862;6.220;2023-04-03T00:31:47;101143.25;;;2.24;83.84
74905;BME280;63465;50.862;6.220;2023-04-03T00:34:13;101144.91;;;2.13;84.79
74905;BME280;63465;50.862;6.220;2023-04-03T00:36:40;101144.06;;;2.19;84.68
74905;BME280;63465;50.862;6.220;2023-04-03T00:39:07;101143.19;;;2.17;85.27
74905;BME280;63465;50.862;6.220;2023-04-03T00:41:35;101144.91;;;2.13;84.98
74905;BME280;63465;50.862;6.220;2023-04-03T00:44:20;101146.59;;;2.06;85.05
74905;BME280;63465;50.862;6.220;2023-04-03T00:46:47;101139.53;;;1.98;86.16
74905;BME280;63465;50.862;6.220;2023-04-03T00:49:14;101140.38;;;1.95;85.57
74905;BME280;63465;50.862;6.220;2023-04-03T00:54:37;101144.09;;;2.22;86.04
74905;BME280;63465;50.862;6.220;2023-04-03T00:57:05;101137.16;;;2.25;85.66
74905;BME280;63465;50.862;6.220;2023-04-03T00:59:35;101142.50;;;2.36;84.75
74905;BME280;63465;50.862;6.220;2023-04-03T01:02:02;101133.81;;;2.46;84.10
74905;BME280;63465;50.862;6.220;2023-04-03T01:04:32;101135.38;;;2.23;85.38
74905;BME280;63465;50.862;6.220;2023-04-03T01:07:01;101134.63;;;2.33;84.88
74905;BME280;63465;50.862;6.220;2023-04-03T01:09:31;101143.25;;;2.23;85.13
74905;BME280;63465;50.862;6.220;2023-04-03T01:12:14;101140.41;;;1.98;84.95
74905;BME280;63465;50.862;6.220;2023-04-03T01:14:42;101140.38;;;1.95;85.09
74905;BME280;63465;50.862;6.220;2023-04-03T01:17:26;101136.81;;;1.90;85.81
74905;BME280;63465;50.862;6.220;2023-04-03T01:20:11;101136.84;;;1.93;85.66
74905;BME280;63465;50.862;6.220;2023-04-03T01:22:53;101142.88;;;1.81;85.95
74905;BME280;63465;50.862;6.220;2023-04-03T01:25:23;101141.03;;;1.74;86.55
74905;BME280;63465;50.862;6.220;2023-04-03T01:27:51;101145.22;;;1.55;86.74
74905;BME280;63465;50.862;6.220;2023-04-03T01:30:21;101149.69;;;1.67;86.16
74905;BME280;63465;50.862;6.220;2023-04-03T01:32:51;101143.53;;;1.63;86.28
74905;BME280;63465;50.862;6.220;2023-04-03T01:35:19;101146.38;;;1.85;86.37
74905;BME280;63465;50.862;6.220;2023-04-03T01:37:45;101141.22;;;1.94;85.61
74905;BME280;63465;50.862;6.220;2023-04-03T01:40:12;101151.56;;;1.78;86.02
74905;BME280;63465;50.862;6.220;2023-04-03T01:42:39;101147.06;;;1.68;86.35
74905;BME280;63465;50.862;6.220;2023-04-03T01:45:07;101146.41;;;1.88;85.96
74905;BME280;63465;50.862;6.220;2023-04-03T01:47:33;101148.97;;;1.82;86.25
74905;BME280;63465;50.862;6.220;2023-04-03T01:50:02;101144.44;;;1.67;86.72
74905;BME280;63465;50.862;6.220;2023-04-03T01:52:32;101151.41;;;1.63;86.58
74905;BME280;63465;50.862;6.220;2023-04-03T01:54:58;101154.91;;;1.65;86.75
74905;BME280;63465;50.862;6.220;2023-04-03T01:57:25;101158.25;;;1.52;86.95
74905;BME280;63465;50.862;6.220;2023-04-03T01:59:52;101151.41;;;1.65;86.69
74905;BME280;63465;50.862;6.220;2023-04-03T02:02:19;101144.34;;;1.59;87.02
74905;BME280;63465;50.862;6.220;2023-04-03T02:04:46;101154.78;;;1.54;87.18
74905;BME280;63465;50.862;6.220;2023-04-03T02:07:14;101150.38;;;1.50;87.68
74905;BME280;63465;50.862;6.220;2023-04-03T02:09:40;101145.25;;;1.58;88.34
74905;BME280;63465;50.862;6.220;2023-04-03T02:12:08;101159.22;;;1.60;87.33
74905;BME280;63465;50.862;6.220;2023-04-03T02:14:34;101152.13;;;1.51;87.73
74905;BME280;63465;50.862;6.220;2023-04-03T02:17:01;101152.88;;;1.38;87.91
74905;BME280;63465;50.862;6.220;2023-04-03T02:19:30;101160.69;;;1.36;87.75
74905;BME280;63465;50.862;6.220;2023-04-03T02:21:57;101165.03;;;1.37;87.93
74905;BME280;63465;50.862;6.220;2023-04-03T02:24:25;101163.44;;;1.47;87.56
74905;BME280;63465;50.862;6.220;2023-04-03T02:26:51;101158.47;;;1.70;87.20
74905;BME280;63465;50.862;6.220;2023-04-03T02:29:18;101163.84;;;1.86;85.90
74905;BME280;63465;50.862;6.220;2023-04-03T02:31:45;101167.16;;;1.69;85.87
74905;BME280;63465;50.862;6.220;2023-04-03T02:34:12;101171.22;;;1.41;86.91
74905;BME280;63465;50.862;6.220;2023-04-03T02:36:40;101162.38;;;1.33;87.97
74905;BME280;63465;50.862;6.220;2023-04-03T02:39:08;101167.66;;;1.37;87.75
74905;BME280;63465;50.862;6.220;2023-04-03T02:41:37;101157.09;;;1.28;88.29
74905;BME280;63465;50.862;6.220;2023-04-03T02:44:10;101167.38;;;1.16;88.74
74905;BME280;63465;50.862;6.220;2023-04-03T02:46:37;101169.81;;;1.02;88.69
74905;BME280;63465;50.862;6.220;2023-04-03T02:49:04;101171.78;;;1.17;88.88
74905;BME280;63465;50.862;6.220;2023-04-03T02:51:31;101165.56;;;1.12;88.37
74905;BME280;63465;50.862;6.220;2023-04-03T02:53:58;101171.63;;;1.06;88.38
74905;BME280;63465;50.862;6.220;2023-04-03T02:56:28;101168.91;;;0.98;88.59
74905;BME280;63465;50.862;6.220;2023-04-03T02:58:56;101175.00;;;0.99;88.95
74905;BME280;63465;50.862;6.220;2023-04-03T03:01:24;101161.94;;;1.00;88.56
74905;BME280;63465;50.862;6.220;2023-04-03T03:03:52;101169.66;;;0.91;89.25
74905;BME280;63465;50.862;6.220;2023-04-03T03:06:19;101169.66;;;0.89;89.66
74905;BME280;63465;50.862;6.220;2023-04-03T03:08:45;101165.09;;;0.76;89.80
74905;BME280;63465;50.862;6.220;2023-04-03T03:11:12;101166.91;;;0.80;90.33
74905;BME280;63465;50.862;6.220;2023-04-03T03:13:39;101163.53;;;0.87;89.54
74905;BME280;63465;50.862;6.220;2023-04-03T03:16:07;101154.03;;;0.94;90.02
74905;BME280;63465;50.862;6.220;2023-04-03T03:18:34;101158.34;;;0.91;90.05
74905;BME280;63465;50.862;6.220;2023-04-03T03:21:03;101155.78;;;0.95;89.96
74905;BME280;63465;50.862;6.220;2023-04-03T03:23:31;101161.16;;;1.06;89.55
74905;BME280;63465;50.862;6.220;2023-04-03T03:26:01;101161.31;;;1.18;89.13
74905;BME280;63465;50.862;6.220;2023-04-03T03:28:28;101156.19;;;1.26;88.61
74905;BME280;63465;50.862;6.220;2023-04-03T03:30:55;101161.63;;;1.43;88.18
74905;BME280;63465;50.862;6.220;2023-04-03T03:33:24;101164.84;;;1.20;88.58
74905;BME280;63465;50.862;6.220;2023-04-03T03:35:52;101169.19;;;1.20;88.84
74905;BME280;63465;50.862;6.220;2023-04-03T03:38:19;101154.44;;;1.27;88.24
74905;BME280;63465;50.862;6.220;2023-04-03T03:40:47;101159.69;;;1.28;88.20
74905;BME280;63465;50.862;6.220;2023-04-03T03:43:13;101156.22;;;1.29;88.27
74905;BME280;63465;50.862;6.220;2023-04-03T03:45:40;101159.72;;;1.30;88.65
74905;BME280;63465;50.862;6.220;2023-04-03T03:48:07;101168.56;;;1.38;88.29
74905;BME280;63465;50.862;6.220;2023-04-03T03:50:36;101162.94;;;1.09;88.54
74905;BME280;63465;50.862;6.220;2023-04-03T03:53:02;101167.91;;;0.90;89.05
74905;BME280;63465;50.862;6.220;2023-04-03T03:55:29;101165.09;;;0.76;89.54
74905;BME280;63465;50.862;6.220;2023-04-03T03:57:57;101178.06;;;0.70;90.23
74905;BME280;63465;50.862;6.220;2023-04-03T04:00:27;101172.06;;;0.76;90.66
74905;BME280;63465;50.862;6.220;2023-04-03T04:02:56;101172.06;;;0.76;90.36
74905;BME280;63465;50.862;6.220;2023-04-03T04:05:24;101173.94;;;0.84;90.06
74905;BME280;63465;50.862;6.220;2023-04-03T04:07:54;101172.16;;;0.82;90.86
74905;BME280;63465;50.862;6.220;2023-04-03T04:10:22;101174.66;;;0.74;90.63
74905;BME280;63465;50.862;6.220;2023-04-03T04:12:49;101167.03;;;0.89;90.57
74905;BME280;63465;50.862;6.220;2023-04-03T04:15:19;101174.84;;;0.88;90.60
74905;BME280;63465;50.862;6.220;2023-04-03T04:17:47;101179.19;;;0.86;90.48
74905;BME280;63465;50.862;6.220;2023-04-03T04:20:14;101174.78;;;0.83;90.26
74905;BME280;63465;50.862;6.220;2023-04-03T04:22:41;101183.16;;;0.62;90.90
74905;BME280;63465;50.862;6.220;2023-04-03T04:25:10;101177.00;;;0.57;90.83
74905;BME280;63465;50.862;6.220;2023-04-03T04:27:38;101182.13;;;0.51;91.25
74905;BME280;63465;50.862;6.220;2023-04-03T04:30:06;101177.03;;;0.59;91.34
74905;BME280;63465;50.862;6.220;2023-04-03T04:32:33;101188.44;;;0.65;91.16
74905;BME280;63465;50.862;6.220;2023-04-03T04:35:00;101184.06;;;0.64;90.60
74905;BME280;63465;50.862;6.220;2023-04-03T04:37:30;101187.56;;;0.63;91.61
74905;BME280;63465;50.862;6.220;2023-04-03T04:39:56;101189.25;;;0.61;91.51
74905;BME280;63465;50.862;6.220;2023-04-03T04:42:25;101185.84;;;0.65;91.75
74905;BME280;63465;50.862;6.220;2023-04-03T04:44:52;101190.31;;;0.74;91.67
74905;BME280;63465;50.862;6.220;2023-04-03T04:47:19;101190.34;;;0.76;91.33
74905;BME280;63465;50.862;6.220;2023-04-03T04:49:46;101191.19;;;0.75;90.97
74905;BME280;63465;50.862;6.220;2023-04-03T04:52:14;101195.38;;;0.63;90.74
74905;BME280;63465;50.862;6.220;2023-04-03T04:54:41;101201.50;;;0.65;91.23
74905;BME280;63465;50.862;6.220;2023-04-03T04:57:08;101197.97;;;0.62;91.29
74905;BME280;63465;50.862;6.220;2023-04-03T04:59:37;101208.88;;;0.91;90.81
74905;BME280;63465;50.862;6.220;2023-04-03T05:02:06;101196.75;;;0.98;90.42
74905;BME280;63465;50.862;6.220;2023-04-03T05:04:33;101190.88;;;1.13;89.51
74905;BME280;63465;50.862;6.220;2023-04-03T05:07:05;101199.53;;;1.10;89.56
74905;BME280;63465;50.862;6.220;2023-04-03T05:09:34;101205.28;;;0.83;89.82
74905;BME280;63465;50.862;6.220;2023-04-03T05:12:01;101197.91;;;0.57;90.65
74905;BME280;63465;50.862;6.220;2023-04-03T05:14:33;101203.84;;;0.48;91.21
74905;BME280;63465;50.862;6.220;2023-04-03T05:17:05;101210.41;;;0.77;90.72
74905;BME280;63465;50.862;6.220;2023-04-03T05:19:35;101216.66;;;0.86;90.61
74905;BME280;63465;50.862;6.220;2023-04-03T05:22:03;101220.09;;;0.85;89.80
74905;BME280;63465;50.862;6.220;2023-04-03T05:24:30;101220.47;;;1.10;89.66
74905;BME280;63465;50.862;6.220;2023-04-03T05:26:57;101225.59;;;1.04;88.90
74905;BME280;63465;50.862;6.220;2023-04-03T05:29:24;101223.66;;;0.89;89.89
74905;BME280;63465;50.862;6.220;2023-04-03T05:31:51;101225.34;;;0.87;89.39
74905;BME280;63465;50.862;6.220;2023-04-03T05:34:20;101221.72;;;0.77;89.97
74905;BME280;63465;50.862;6.220;2023-04-03T05:36:48;101224.56;;;0.91;90.28
74905;BME280;63465;50.862;6.220;2023-04-03T05:39:15;101229.72;;;0.88;89.97
74905;BME280;63465;50.862;6.220;2023-04-03T05:41:44;101233.19;;;0.87;90.01
74905;BME280;63465;50.862;6.220;2023-04-03T05:44:11;101237.47;;;0.80;89.94
74905;BME280;63465;50.862;6.220;2023-04-03T05:46:38;101230.38;;;0.73;90.37
74905;BME280;63465;50.862;6.220;2023-04-03T05:49:08;101239.06;;;0.70;90.33
74905;BME280;63465;50.862;6.220;2023-04-03T05:51:38;101244.44;;;0.80;90.72
74905;BME280;63465;50.862;6.220;2023-04-03T05:54:17;101243.56;;;0.82;90.30
74905;BME280;63465;50.862;6.220;2023-04-03T05:56:45;101245.47;;;0.91;90.31
74905;BME280;63465;50.862;6.220;2023-04-03T05:59:12;101243.44;;;0.75;90.81
74905;BME280;63465;50.862;6.220;2023-04-03T06:01:39;101248.91;;;0.88;90.48
74905;BME280;63465;50.862;6.220;2023-04-03T06:04:06;101245.41;;;0.88;90.94
74905;BME280;63465;50.862;6.220;2023-04-03T06:06:47;101246.13;;;0.78;90.68
74905;BME280;63465;50.862;6.220;2023-04-03T06:09:14;101252.34;;;0.86;90.50
74905;BME280;63465;50.862;6.220;2023-04-03T06:11:43;101257.69;;;0.92;90.72
74905;BME280;63465;50.862;6.220;2023-04-03T06:14:10;101259.44;;;0.95;90.93
74905;BME280;63465;50.862;6.220;2023-04-03T06:16:37;101257.72;;;0.95;91.04
74905;BME280;63465;50.862;6.220;2023-04-03T06:19:06;101252.56;;;0.98;91.15
74905;BME280;63465;50.862;6.220;2023-04-03T06:21:33;101265.75;;;1.08;90.40
74905;BME280;63465;50.862;6.220;2023-04-03T06:24:03;101260.81;;;1.26;90.40
74905;BME280;63465;50.862;6.220;2023-04-03T06:26:31;101265.00;;;1.18;90.40
74905;BME280;63465;50.862;6.220;2023-04-03T06:28:59;101264.28;;;1.27;89.87
74905;BME280;63465;50.862;6.220;2023-04-03T06:31:27;101261.78;;;1.36;89.81
74905;BME280;63465;50.862;6.220;2023-04-03T06:33:54;101260.31;;;1.55;89.58
74905;BME280;63465;50.862;6.220;2023-04-03T06:36:20;101264.75;;;1.60;89.34
74905;BME280;63465;50.862;6.220;2023-04-03T06:38:48;101256.81;;;1.56;89.01
74905;BME280;63465;50.862;6.220;2023-04-03T06:41:16;101257.75;;;1.59;90.17
74905;BME280;63465;50.862;6.220;2023-04-03T06:43:43;101258.69;;;1.63;90.29
74905;BME280;63465;50.862;6.220;2023-04-03T06:46:14;101263.03;;;1.61;89.76
74905;BME280;63465;50.862;6.220;2023-04-03T06:48:43;101262.22;;;1.68;89.17
74905;BME280;63465;50.862;6.220;2023-04-03T06:51:18;101264.00;;;1.71;89.67
74905;BME280;63465;50.862;6.220;2023-04-03T06:53:46;101268.44;;;1.76;89.11
74905;BME280;63465;50.862;6.220;2023-04-03T06:56:13;101265.88;;;1.80;89.11
74905;BME280;63465;50.862;6.220;2023-04-03T06:58:42;101266.00;;;1.92;88.75
74905;BME280;63465;50.862;6.220;2023-04-03T07:01:09;101269.56;;;1.97;88.58
74905;BME280;63465;50.862;6.220;2023-04-03T07:03:36;101260.97;;;2.10;87.58
74905;BME280;63465;50.862;6.220;2023-04-03T07:06:03;101275.25;;;2.40;86.89
74905;BME280;63465;50.862;6.220;2023-04-03T07:08:30;101269.13;;;2.38;85.60
74905;BME280;63465;50.862;6.220;2023-04-03T07:10:57;101271.69;;;2.32;84.84
74905;BME280;63465;50.862;6.220;2023-04-03T07:13:23;101268.28;;;2.41;85.02
74905;BME280;63465;50.862;6.220;2023-04-03T07:15:52;101272.88;;;2.63;83.99
74905;BME280;63465;50.862;6.220;2023-04-03T07:18:19;101270.41;;;2.82;83.46
74905;BME280;63465;50.862;6.220;2023-04-03T07:20:46;101274.03;;;2.99;82.60
74905;BME280;63465;50.862;6.220;2023-04-03T07:23:13;101280.16;;;3.03;83.48
74905;BME280;63465;50.862;6.220;2023-04-03T07:25:42;101280.97;;;2.93;80.32
74905;BME280;63465;50.862;6.220;2023-04-03T07:28:09;101281.94;;;3.06;79.85
74905;BME280;63465;50.862;6.220;2023-04-03T07:30:42;101279.38;;;3.13;82.97
74905;BME280;63465;50.862;6.220;2023-04-03T07:33:10;101282.03;;;3.19;81.58
74905;BME280;63465;50.862;6.220;2023-04-03T07:35:38;101279.38;;;3.18;78.94
74905;BME280;63465;50.862;6.220;2023-04-03T07:38:05;101282.00;;;3.15;80.52
74905;BME280;63465;50.862;6.220;2023-04-03T07:40:32;101292.47;;;3.13;80.83
74905;BME280;63465;50.862;6.220;2023-04-03T07:42:59;101287.34;;;3.32;81.80
74905;BME280;63465;50.862;6.220;2023-04-03T07:45:25;101290.91;;;3.37;80.54
74905;BME280;63465;50.862;6.220;2023-04-03T07:47:52;101293.44;;;3.26;79.55
74905;BME280;63465;50.862;6.220;2023-04-03T07:50:20;101291.81;;;3.42;81.21
74905;BME280;63465;50.862;6.220;2023-04-03T07:52:47;101283.06;;;3.43;80.31
74905;BME280;63465;50.862;6.220;2023-04-03T07:55:16;101284.78;;;3.43;78.47
74905;BME280;63465;50.862;6.220;2023-04-03T07:57:43;101288.31;;;3.40;78.72
74905;BME280;63465;50.862;6.220;2023-04-03T08:00:11;101291.81;;;3.42;79.48
74905;BME280;63465;50.862;6.220;2023-04-03T08:02:37;101285.78;;;3.62;79.71
74905;BME280;63465;50.862;6.220;2023-04-03T08:05:05;101282.31;;;3.69;78.03
74905;BME280;63465;50.862;6.220;2023-04-03T08:07:33;101287.56;;;3.72;78.14
74905;BME280;63465;50.862;6.220;2023-04-03T08:10:00;101281.53;;;3.91;79.28
74905;BME280;63465;50.862;6.220;2023-04-03T08:12:27;101292.94;;;3.95;78.26
74905;BME280;63465;50.862;6.220;2023-04-03T08:14:53;101285.03;;;3.93;77.74
74905;BME280;63465;50.862;6.220;2023-04-03T08:17:20;101290.34;;;4.03;76.85
74905;BME280;63465;50.862;6.220;2023-04-03T08:19:47;101290.31;;;3.97;75.79
74905;BME280;63465;50.862;6.220;2023-04-03T08:22:14;101286.88;;;4.18;76.27
74905;BME280;63465;50.862;6.220;2023-04-03T08:24:42;101278.13;;;4.16;77.07
74905;BME280;63465;50.862;6.220;2023-04-03T08:27:09;101282.47;;;4.07;75.11
74905;BME280;63465;50.862;6.220;2023-04-03T08:29:36;101288.63;;;4.14;74.97
74905;BME280;63465;50.862;6.220;2023-04-03T08:32:03;101287.78;;;4.29;73.02
74905;BME280;63465;50.862;6.220;2023-04-03T08:34:30;101290.47;;;4.47;74.81
74905;BME280;63465;50.862;6.220;2023-04-03T08:37:00;101296.56;;;4.37;73.38
74905;BME280;63465;50.862;6.220;2023-04-03T08:39:26;101293.97;;;4.67;73.63
74905;BME280;63465;50.862;6.220;2023-04-03T08:41:57;101295.75;;;4.89;73.94
74905;BME280;63465;50.862;6.220;2023-04-03T08:44:26;101295.75;;;5.02;74.79
74905;BME280;63465;50.862;6.220;2023-04-03T08:47:11;101286.91;;;5.46;72.97
74905;BME280;63465;50.862;6.220;2023-04-03T08:49:42;101297.31;;;5.84;72.28
74905;BME280;63465;50.862;6.220;2023-04-03T08:52:15;101293.81;;;5.87;72.01
74905;BME280;63465;50.862;6.220;2023-04-03T08:54:49;101297.16;;;6.24;69.27
74905;BME280;63465;50.862;6.220;2023-04-03T08:57:22;101301.19;;;6.83;68.43
74905;BME280;63465;50.862;6.220;2023-04-03T08:59:51;101296.22;;;8.21;63.16
74905;BME280;63465;50.862;6.220;2023-04-03T09:02:24;101301.97;;;7.82;64.49
74905;BME280;63465;50.862;6.220;2023-04-03T09:04:52;101305.16;;;8.12;61.75
74905;BME280;63465;50.862;6.220;2023-04-03T09:07:23;101301.34;;;8.92;59.32
74905;BME280;63465;50.862;6.220;2023-04-03T09:09:52;101295.53;;;8.70;60.19
74905;BME280;63465;50.862;6.220;2023-04-03T09:12:23;101311.06;;;8.92;59.40
74905;BME280;63465;50.862;6.220;2023-04-03T09:14:57;101313.56;;;7.72;59.12
74905;BME280;63465;50.862;6.220;2023-04-03T09:17:37;101303.06;;;8.34;58.65
74905;BME280;63465;50.862;6.220;2023-04-03T09:20:17;101304.75;;;8.40;56.36
74905;BME280;63465;50.862;6.220;2023-04-03T09:22:46;101306.66;;;7.57;58.24
74905;BME280;63465;50.862;6.220;2023-04-03T09:25:15;101301.34;;;8.33;58.70
74905;BME280;63465;50.862;6.220;2023-04-03T09:27:44;101296.41;;;8.71;57.06
74905;BME280;63465;50.862;6.220;2023-04-03T09:30:13;101305.78;;;9.43;55.51
74905;BME280;63465;50.862;6.220;2023-04-03T09:32:43;101296.06;;;10.30;51.62
74905;BME280;63465;50.862;6.220;2023-04-03T09:35:19;101291.31;;;11.18;49.39
74905;BME280;63465;50.862;6.220;2023-04-03T09:37:48;101289.06;;;10.66;48.78
74905;BME280;63465;50.862;6.220;2023-04-03T09:40:31;101281.28;;;11.95;48.27
74905;BME280;63465;50.862;6.220;2023-04-03T09:43:18;101282.91;;;12.29;44.42
74905;BME280;63465;50.862;6.220;2023-04-03T09:45:46;101278.06;;;11.51;45.12
74905;BME280;63465;50.862;6.220;2023-04-03T09:48:16;101280.47;;;10.93;47.71
74905;BME280;63465;50.862;6.220;2023-04-03T09:50:54;101274.59;;;14.19;37.37
74905;BME280;63465;50.862;6.220;2023-04-03T09:53:30;101277.91;;;14.72;37.75
74905;BME280;63465;50.862;6.220;2023-04-03T09:55:57;101274.97;;;12.27;41.79
74905;BME280;63465;50.862;6.220;2023-04-03T09:58:27;101282.19;;;10.95;44.37
74905;BME280;63465;50.862;6.220;2023-04-03T10:00:57;101276.38;;;11.47;44.35
74905;BME280;63465;50.862;6.220;2023-04-03T10:03:28;101272.13;;;11.72;44.09
74905;BME280;63465;50.862;6.220;2023-04-03T10:05:55;101264.34;;;12.56;42.35
74905;BME280;63465;50.862;6.220;2023-04-03T10:08:26;101270.13;;;14.20;36.54
74905;BME280;63465;50.862;6.220;2023-04-03T10:11:11;101250.06;;;16.18;32.35
74905;BME280;63465;50.862;6.220;2023-04-03T10:13:54;101248.09;;;15.84;32.14
74905;BME280;63465;50.862;6.220;2023-04-03T10:16:26;101253.75;;;15.97;31.47
74905;BME280;63465;50.862;6.220;2023-04-03T10:19:03;101267.63;;;13.17;35.41
74905;BME280;63465;50.862;6.220;2023-04-03T10:21:40;101264.94;;;11.76;37.97
74905;BME280;63465;50.862;6.220;2023-04-03T10:24:13;101276.09;;;10.54;42.03
74905;BME280;63465;50.862;6.220;2023-04-03T10:26:50;101268.72;;;11.03;40.06
74905;BME280;63465;50.862;6.220;2023-04-03T10:29:29;101270.38;;;11.71;37.97
74905;BME280;63465;50.862;6.220;2023-04-03T10:32:02;101245.28;;;12.41;37.70
74905;BME280;63465;50.862;6.220;2023-04-03T10:34:39;101261.50;;;13.14;36.85
74905;BME280;63465;50.862;6.220;2023-04-03T10:37:14;101257.31;;;11.32;38.34
74905;BME280;63465;50.862;6.220;2023-04-03T10:39:52;101249.75;;;12.67;37.90
74905;BME280;63465;50.862;6.220;2023-04-03T10:42:26;101237.91;;;12.49;36.37
74905;BME280;63465;50.862;6.220;2023-04-03T10:45:03;101243.47;;;10.85;42.45
74905;BME280;63465;50.862;6.220;2023-04-03T10:47:39;101249.34;;;11.32;41.98
74905;BME280;63465;50.862;6.220;2023-04-03T10:50:29;101248.44;;;11.65;40.39
74905;BME280;63465;50.862;6.220;2023-04-03T10:53:03;101244.13;;;12.50;39.17
74905;BME280;63465;50.862;6.220;2023-04-03T10:55:36;101248.59;;;14.01;35.66
74905;BME280;63465;50.862;6.220;2023-04-03T10:58:06;101245.31;;;12.68;38.07
74905;BME280;63465;50.862;6.220;2023-04-03T11:00:43;101247.59;;;12.52;37.81
74905;BME280;63465;50.862;6.220;2023-04-03T11:03:15;101238.28;;;12.09;37.67
74905;BME280;63465;50.862;6.220;2023-04-03T11:05:45;101241.47;;;12.20;38.70
74905;BME280;63465;50.862;6.220;2023-04-03T11:08:23;101225.75;;;11.83;38.22
74905;BME280;63465;50.862;6.220;2023-04-03T11:10:55;101222.69;;;11.65;39.09
74905;BME280;63465;50.862;6.220;2023-04-03T11:13:27;101229.59;;;12.04;40.02
74905;BME280;63465;50.862;6.220;2023-04-03T11:15:58;101227.22;;;12.23;35.29
74905;BME280;63465;50.862;6.220;2023-04-03T11:18:27;101218.84;;;12.07;36.04
74905;BME280;63465;50.862;6.220;2023-04-03T11:21:01;101211.84;;;12.59;34.98
74905;BME280;63465;50.862;6.220;2023-04-03T11:23:33;101215.06;;;13.21;34.79
74905;BME280;63465;50.862;6.220;2023-04-03T11:26:10;101214.16;;;11.84;39.57
74905;BME280;63465;50.862;6.220;2023-04-03T11:28:37;101207.56;;;11.99;37.41
74905;BME280;63465;50.862;6.220;2023-04-03T11:31:15;101215.38;;;11.73;38.00
74905;BME280;63465;50.862;6.220;2023-04-03T11:33:52;101211.34;;;12.20;37.76
74905;BME280;63465;50.862;6.220;2023-04-03T11:36:26;101208.97;;;13.68;35.56
74905;BME280;63465;50.862;6.220;2023-04-03T11:38:56;101196.94;;;13.06;35.34
74905;BME280;63465;50.862;6.220;2023-04-03T11:41:26;101200.44;;;13.08;34.68
74905;BME280;63465;50.862;6.220;2023-04-03T11:43:59;101198.03;;;12.75;34.80
74905;BME280;63465;50.862;6.220;2023-04-03T11:46:53;101196.72;;;12.05;39.18
74905;BME280;63465;50.862;6.220;2023-04-03T11:53:01;101186.00;;;12.08;38.36
74905;BME280;63465;50.862;6.220;2023-04-03T11:55:55;101177.53;;;11.95;39.21
74905;BME280;63465;50.862;6.220;2023-04-03T11:58:24;101186.16;;;13.59;34.20
74905;BME280;63465;50.862;6.220;2023-04-03T12:00:57;101183.25;;;14.11;34.22
74905;BME280;63465;50.862;6.220;2023-04-03T12:10:15;101166.47;;;14.94;30.35
74905;BME280;63465;50.862;6.220;2023-04-03T12:12:55;101171.88;;;13.84;31.95
74905;BME280;63465;50.862;6.220;2023-04-03T12:15:26;101164.47;;;15.00;31.10
74905;BME280;63465;50.862;6.220;2023-04-03T12:17:53;101163.97;;;14.04;31.27
74905;BME280;63465;50.862;6.220;2023-04-03T12:23:31;101158.22;;;15.59;27.75
74905;BME280;63465;50.862;6.220;2023-04-03T12:26:10;101162.03;;;12.08;34.69
74905;BME280;63465;50.862;6.220;2023-04-03T12:28:48;101157.25;;;12.46;35.64
74905;BME280;63465;50.862;6.220;2023-04-03T12:31:18;101154.56;;;11.31;35.60
74905;BME280;63465;50.862;6.220;2023-04-03T12:34:07;101156.34;;;10.66;38.43
74905;BME280;63465;50.862;6.220;2023-04-03T12:36:46;101163.59;;;10.93;36.87
74905;BME280;63465;50.862;6.220;2023-04-03T12:39:45;101156.94;;;10.04;38.89
74905;BME280;63465;50.862;6.220;2023-04-03T12:42:35;101148.63;;;10.90;35.98
74905;BME280;63465;50.862;6.220;2023-04-03T12:45:13;101152.03;;;10.95;32.70
74905;BME280;63465;50.862;6.220;2023-04-03T12:47:43;101139.41;;;10.70;33.73
74905;BME280;63465;50.862;6.220;2023-04-03T12:50:18;101136.72;;;11.36;34.56
74905;BME280;63465;50.862;6.220;2023-04-03T12:52:51;101136.56;;;11.10;33.59
74905;BME280;63465;50.862;6.220;2023-04-03T12:55:21;101143.81;;;10.71;35.36
74905;BME280;63465;50.862;6.220;2023-04-03T12:57:49;101136.63;;;11.08;35.14
74905;BME280;63465;50.862;6.220;2023-04-03T13:00:22;101139.91;;;11.48;34.51
74905;BME280;63465;50.862;6.220;2023-04-03T13:02:53;101141.59;;;10.55;35.14
74905;BME280;63465;50.862;6.220;2023-04-03T13:05:21;101134.59;;;10.85;37.05
74905;BME280;63465;50.862;6.220;2023-04-03T13:07:49;101131.75;;;11.24;37.89
74905;BME280;63465;50.862;6.220;2023-04-03T13:10:17;101129.44;;;10.44;34.83
74905;BME280;63465;50.862;6.220;2023-04-03T13:12:50;101121.59;;;10.40;36.29
74905;BME280;63465;50.862;6.220;2023-04-03T13:15:19;101118.69;;;10.50;33.85
74905;BME280;63465;50.862;6.220;2023-04-03T13:17:46;101126.13;;;10.36;34.60
74905;BME280;63465;50.862;6.220;2023-04-03T13:20:20;101119.56;;;10.51;34.51
74905;BME280;63465;50.862;6.220;2023-04-03T13:22:55;101110.06;;;10.77;34.40
74905;BME280;63465;50.862;6.220;2023-04-03T13:25:24;101111.03;;;10.73;35.34
74905;BME280;63465;50.862;6.220;2023-04-03T13:27:54;101112.50;;;11.16;34.72
74905;BME280;63465;50.862;6.220;2023-04-03T13:30:25;101100.38;;;11.05;35.88